Time;durP1;ratioP1;P1;durP2;ratioP2;P2;SDS_P1;SDS_P2;PMS_P1;PMS_P2;Temp;Humidity;BMP_temperature;BMP_pressure;BME280_temperature;BME280_humidity;BME280_pressure;Samples;Min_cycle;Max_cycle;Signal;HPM_P1;HPM_P2
2023/08/22 00:05:03;;;;;;;;;;;;;;;23.92;100.00;95992.28;10553282;28;1931;-73
2023/08/22 00:10:06;;;;;;;;;;;;;;;23.86;100.00;95991.00;10543580;27;2276;-74
2023/08/22 00:15:10;;;;;;;;;;;;;;;23.73;100.00;95990.28;10554775;28;1840;-73
2023/08/22 00:20:13;;;;;;;;;;;;;;;23.81;100.00;95994.00;10558664;28;1945;-74
2023/08/22 00:25:16;;;;;;;;;;;;;;;23.89;100.00;95988.31;10555238;28;1987;-74
2023/08/22 00:30:19;;;;;;;;;;;;;;;23.96;100.00;95984.94;10557437;28;1904;-73
2023/08/22 00:35:24;;;;;;;;;;;;;;;23.92;100.00;95984.06;10540416;28;1952;-75
2023/08/22 00:40:29;;;;;;;;;;;;;;;24.03;100.00;95985.13;10556511;28;5138;-73
2023/08/22 00:45:32;;;;;;;;;;;;;;;24.00;100.00;95985.84;10560237;28;1853;-74
2023/08/22 00:50:40;;;;;;;;;;;;;;;23.87;100.00;95984.34;10562406;28;1907;-74
2023/08/22 00:55:53;;;;;;;;;;;;;;;23.73;100.00;95977.34;10554930;28;1817;-73
2023/08/22 01:00:57;;;;;;;;;;;;;;;24.03;100.00;95974.13;10530455;28;2423;-74
2023/08/22 01:06:05;;;;;;;;;;;;;;;23.65;100.00;95980.22;10560777;28;1922;-74
2023/08/22 01:11:09;;;;;;;;;;;;;;;23.47;100.00;95979.72;10567152;27;2981;-75
2023/08/22 01:16:14;;;;;;;;;;;;;;;23.33;100.00;95973.88;10551712;27;1884;-73
2023/08/22 01:21:20;;;;;;;;;;;;;;;23.65;100.00;95970.06;10565990;27;2236;-77
2023/08/22 01:26:25;;;;;;;;;;;;;;;23.67;100.00;95965.03;10549017;27;2041;-76
2023/08/22 01:31:30;;;;;;;;;;;;;;;23.65;100.00;95966.50;10556982;27;2274;-74
2023/08/22 01:36:35;;;;;;;;;;;;;;;23.71;100.00;95957.66;10560798;27;1993;-74
2023/08/22 01:41:40;;;;;;;;;;;;;;;23.75;100.00;95951.47;10583639;27;5052;-74
2023/08/22 01:46:47;;;;;;;;;;;;;;;23.70;100.00;95961.56;10550857;27;2120;-74
2023/08/22 01:51:52;;;;;;;;;;;;;;;23.62;100.00;95964.50;10573242;27;2002;-74
2023/08/22 01:56:55;;;;;;;;;;;;;;;23.60;100.00;95962.06;10575845;27;1970;-74
2023/08/22 02:02:01;;;;;;;;;;;;;;;23.65;100.00;95961.03;10568390;27;2142;-74
2023/08/22 02:07:09;;;;;;;;;;;;;;;23.70;100.00;95953.34;10579101;27;2284;-74
2023/08/22 02:12:22;;;;;;;;;;;;;;;23.63;100.00;95947.66;10581915;27;1965;-74
2023/08/22 02:17:43;;;;;;;;;;;;;;;23.59;100.00;95944.00;10574903;27;1919;-74
2023/08/22 02:22:49;;;;;;;;;;;;;;;23.55;100.00;95945.88;10560330;27;1976;-73
2023/08/22 02:27:55;;;;;;;;;;;;;;;23.42;100.00;95934.16;10545195;27;1992;-73
2023/08/22 02:33:03;;;;;;;;;;;;;;;23.47;100.00;95924.88;10559802;27;1977;-74
2023/08/22 02:38:08;;;;;;;;;;;;;;;23.48;100.00;95921.00;10537629;27;1943;-74
2023/08/22 02:43:14;;;;;;;;;;;;;;;23.39;100.00;95917.59;10564602;27;5029;-72
2023/08/22 02:48:18;;;;;;;;;;;;;;;23.42;100.00;95916.91;10559873;27;2171;-72
2023/08/22 02:53:27;;;;;;;;;;;;;;;23.30;100.00;95920.53;10558862;27;2212;-72
2023/08/22 02:58:30;;;;;;;;;;;;;;;23.18;100.00;95929.63;10557286;27;2015;-73
2023/08/22 03:03:34;;;;;;;;;;;;;;;23.27;100.00;95932.19;10568631;27;2786;-74
2023/08/22 03:08:42;;;;;;;;;;;;;;;23.10;100.00;95929.78;10559173;27;1899;-75
2023/08/22 03:13:49;;;;;;;;;;;;;;;23.06;100.00;95937.09;10562889;27;1997;-75
2023/08/22 03:18:53;;;;;;;;;;;;;;;22.72;100.00;95938.47;10558708;27;2153;-74
2023/08/22 03:23:57;;;;;;;;;;;;;;;22.44;100.00;95938.41;10558542;27;1979;-75
2023/08/22 03:28:59;;;;;;;;;;;;;;;22.20;100.00;95947.44;10541723;28;1962;-74
2023/08/22 03:34:04;;;;;;;;;;;;;;;22.05;100.00;95944.25;10556543;27;1990;-75
2023/08/22 03:39:08;;;;;;;;;;;;;;;21.97;100.00;95953.38;10559677;27;2112;-75
2023/08/22 03:44:14;;;;;;;;;;;;;;;22.03;100.00;95949.28;10543246;27;5295;-75
2023/08/22 03:49:18;;;;;;;;;;;;;;;21.88;100.00;95949.94;10551121;28;2011;-75
2023/08/22 03:54:29;;;;;;;;;;;;;;;21.70;100.00;95949.38;10546541;27;2005;-75
2023/08/22 03:59:33;;;;;;;;;;;;;;;21.54;100.00;95957.44;10536593;28;2416;-75
2023/08/22 04:04:36;;;;;;;;;;;;;;;21.50;100.00;95962.00;10553351;27;1883;-75
2023/08/22 04:09:39;;;;;;;;;;;;;;;21.54;100.00;95962.91;10558440;28;1895;-74
2023/08/22 04:14:46;;;;;;;;;;;;;;;21.45;100.00;95964.94;10554255;27;1998;-74
2023/08/22 04:19:49;;;;;;;;;;;;;;;21.48;100.00;95963.47;10556354;28;1977;-75
2023/08/22 04:24:55;;;;;;;;;;;;;;;21.66;100.00;95964.06;10547468;28;1974;-74
2023/08/22 04:29:59;;;;;;;;;;;;;;;21.86;100.00;95974.13;10535556;28;2004;-74
2023/08/22 04:35:03;;;;;;;;;;;;;;;21.75;100.00;95984.69;10551866;28;1980;-74
2023/08/22 04:40:08;;;;;;;;;;;;;;;21.79;100.00;95974.69;10550155;28;2098;-74
2023/08/22 04:45:11;;;;;;;;;;;;;;;22.23;100.00;95980.44;10546105;28;2005;-73
2023/08/22 04:50:15;;;;;;;;;;;;;;;22.57;100.00;95978.31;10558664;27;1982;-74
2023/08/22 04:55:21;;;;;;;;;;;;;;;23.01;100.00;95968.28;10531493;28;1973;-75
2023/08/22 05:00:24;;;;;;;;;;;;;;;23.45;100.00;95962.84;10559092;27;1963;-73
2023/08/22 05:05:27;;;;;;;;;;;;;;;23.37;100.00;95959.13;10563702;27;1970;-74
2023/08/22 05:10:31;;;;;;;;;;;;;;;23.57;100.00;95962.75;10542377;27;1974;-73
2023/08/22 05:15:34;;;;;;;;;;;;;;;23.94;100.00;95960.59;10550647;27;2022;-72
2023/08/22 05:20:41;;;;;;;;;;;;;;;24.23;100.00;95956.56;10561783;27;2043;-74
2023/08/22 05:25:48;;;;;;;;;;;;;;;24.59;100.00;95962.91;10557153;27;2343;-73
2023/08/22 05:30:52;;;;;;;;;;;;;;;24.94;100.00;95957.38;10564172;27;2302;-74
2023/08/22 05:35:54;;;;;;;;;;;;;;;25.02;100.00;95958.31;10551423;27;1924;-76
2023/08/22 05:41:00;;;;;;;;;;;;;;;24.99;100.00;95959.03;10543284;27;5232;-76
2023/08/22 05:46:08;;;;;;;;;;;;;;;25.22;100.00;95961.88;10546836;28;2032;-78
2023/08/22 05:51:11;;;;;;;;;;;;;;;25.34;100.00;95954.28;10565459;27;2360;-75
2023/08/22 05:56:29;;;;;;;;;;;;;;;25.57;100.00;95962.53;10549699;27;1913;-77
2023/08/22 06:01:36;;;;;;;;;;;;;;;25.60;100.00;95961.81;10539449;27;2150;-75
2023/08/22 06:06:44;;;;;;;;;;;;;;;26.13;100.00;95970.22;10541572;27;1972;-75
2023/08/22 06:11:48;;;;;;;;;;;;;;;26.44;100.00;95964.81;10548369;27;2010;-75
2023/08/22 06:16:57;;;;;;;;;;;;;;;26.76;100.00;95974.31;10562416;27;2332;-74
2023/08/22 06:22:11;;;;;;;;;;;;;;;26.97;100.00;95976.56;10563279;27;2173;-74
2023/08/22 06:27:18;;;;;;;;;;;;;;;26.86;100.00;95978.41;10558503;27;1961;-74
2023/08/22 06:37:41;;;;;;;;;;;;;;;27.07;100.00;95970.44;10531887;27;1887;-75
2023/08/22 06:42:49;;;;;;;;;;;;;;;27.31;100.00;95968.34;10539411;27;5093;-74
2023/08/22 06:47:52;;;;;;;;;;;;;;;27.01;100.00;95973.88;10549030;28;2371;-74
2023/08/22 06:52:57;;;;;;;;;;;;;;;27.73;100.00;95981.81;10545259;28;1860;-74
2023/08/22 06:58:02;;;;;;;;;;;;;;;27.89;100.00;95970.56;10552085;28;1765;-74
2023/08/22 07:03:06;;;;;;;;;;;;;;;27.68;100.00;95977.47;10556659;28;1913;-73
2023/08/22 07:08:14;;;;;;;;;;;;;;;27.89;100.00;95965.81;10535908;28;1954;-74
2023/08/22 07:13:18;;;;;;;;;;;;;;;28.09;100.00;95973.88;10550123;27;1923;-74
2023/08/22 07:18:26;;;;;;;;;;;;;;;28.10;100.00;95970.72;10561452;27;1892;-74
2023/08/22 07:23:36;;;;;;;;;;;;;;;28.28;100.00;95968.09;10550223;27;1922;-73
2023/08/22 07:28:48;;;;;;;;;;;;;;;28.27;100.00;95972.84;10554373;27;1789;-75
2023/08/22 07:34:06;;;;;;;;;;;;;;;28.85;100.00;95971.28;10548553;28;1890;-74
2023/08/22 07:39:09;;;;;;;;;;;;;;;28.91;100.00;95969.72;10562008;28;2047;-74
2023/08/22 07:44:20;;;;;;;;;;;;;;;29.10;100.00;95976.97;10545801;27;5085;-74
2023/08/22 07:49:27;;;;;;;;;;;;;;;29.39;100.00;95982.59;10571142;27;2031;-76
2023/08/22 07:54:34;;;;;;;;;;;;;;;29.56;100.00;95977.13;10534840;28;2091;-77
2023/08/22 07:59:39;;;;;;;;;;;;;;;29.56;100.00;95981.88;10553062;27;1906;-74
2023/08/22 08:04:45;;;;;;;;;;;;;;;29.66;100.00;95985.88;10553566;28;1805;-75
2023/08/22 08:09:58;;;;;;;;;;;;;;;29.58;100.00;95983.09;10565958;27;1812;-75
2023/08/22 08:15:03;;;;;;;;;;;;;;;29.61;100.00;95993.38;10558470;28;1251;-75
2023/08/22 08:20:06;;;;;;;;;;;;;;;30.06;100.00;95985.53;10561809;28;1913;-74
2023/08/22 08:25:11;;;;;;;;;;;;;;;30.14;100.00;95981.59;10557665;28;1374;-74
2023/08/22 08:30:17;;;;;;;;;;;;;;;30.31;100.00;95980.03;10553442;28;1611;-75
2023/08/22 08:35:20;;;;;;;;;;;;;;;30.70;100.00;95987.53;10567087;28;1868;-74
2023/08/22 08:40:25;;;;;;;;;;;;;;;30.41;100.00;95981.19;10545392;28;5375;-74
2023/08/22 08:45:37;;;;;;;;;;;;;;;30.45;100.00;95984.75;10546318;28;1695;-74
2023/08/22 08:50:41;;;;;;;;;;;;;;;30.58;100.00;95977.63;10551401;28;1406;-75
2023/08/22 08:55:47;;;;;;;;;;;;;;;30.72;100.00;95979.59;10560323;28;1374;-75
2023/08/22 09:00:51;;;;;;;;;;;;;;;30.82;100.00;95983.56;10569159;27;1910;-75
2023/08/22 09:05:58;;;;;;;;;;;;;;;31.20;100.00;95982.63;10553846;28;1588;-75
2023/08/22 09:11:02;;;;;;;;;;;;;;;31.16;100.00;95983.84;10539458;28;1426;-74
2023/08/22 09:16:06;;;;;;;;;;;;;;;31.45;100.00;95981.78;10545446;28;1498;-74
2023/08/22 09:21:14;;;;;;;;;;;;;;;31.27;100.00;95981.06;10549416;28;1983;-74
2023/08/22 09:26:20;;;;;;;;;;;;;;;31.47;100.00;95979.38;10567123;27;1221;-73
2023/08/22 09:31:33;;;;;;;;;;;;;;;31.73;100.00;95975.25;10557438;28;1570;-74
2023/08/22 09:36:36;;;;;;;;;;;;;;;31.82;100.00;95972.06;10556944;28;2184;-75
2023/08/22 09:41:39;;;;;;;;;;;;;;;31.66;96.93;95970.53;10548500;28;5148;-74
2023/08/22 09:46:46;;;;;;;;;;;;;;;31.79;98.20;95967.31;10564893;28;1459;-75
2023/08/22 09:51:50;;;;;;;;;;;;;;;31.62;98.19;95969.78;10571284;28;1217;-75
2023/08/22 09:56:56;;;;;;;;;;;;;;;31.59;98.50;95970.56;10562348;27;1901;-75
2023/08/22 10:01:59;;;;;;;;;;;;;;;31.66;99.83;95970.53;10548361;27;1947;-76
2023/08/22 10:07:04;;;;;;;;;;;;;;;32.06;96.76;95964.72;10537208;27;2017;-72
2023/08/22 10:12:12;;;;;;;;;;;;;;;32.00;96.86;95961.59;10560726;27;1880;-73
2023/08/22 10:17:16;;;;;;;;;;;;;;;32.09;97.86;95956.38;10560329;27;1879;-74
2023/08/22 10:22:21;;;;;;;;;;;;;;;32.46;92.28;95950.13;10562328;27;1921;-74
2023/08/22 10:27:26;;;;;;;;;;;;;;;32.42;91.64;95951.34;10546587;27;1880;-74
2023/08/22 10:32:37;;;;;;;;;;;;;;;32.37;94.69;95951.78;10547205;27;2491;-73
2023/08/22 10:37:42;;;;;;;;;;;;;;;32.35;97.09;95948.66;10584084;27;2183;-74
2023/08/22 10:42:46;;;;;;;;;;;;;;;32.47;93.53;95942.56;10571473;27;5148;-74
2023/08/22 10:47:56;;;;;;;;;;;;;;;32.52;93.03;95947.69;10552602;27;1785;-74
2023/08/22 10:53:01;;;;;;;;;;;;;;;32.68;91.01;95936.78;10559677;27;2054;-75
2023/08/22 10:58:05;;;;;;;;;;;;;;;32.46;93.54;95939.00;10539381;27;1856;-73
2023/08/22 11:03:10;;;;;;;;;;;;;;;32.69;89.95;95932.78;10543803;27;1946;-75
2023/08/22 11:08:14;;;;;;;;;;;;;;;32.88;93.07;95930.63;10551103;27;1945;-74
2023/08/22 11:13:19;;;;;;;;;;;;;;;33.11;88.21;95925.19;10565623;27;1869;-74
2023/08/22 11:18:23;;;;;;;;;;;;;;;32.79;92.17;95926.31;10567905;27;1836;-75
2023/08/22 11:23:27;;;;;;;;;;;;;;;32.75;91.51;95925.56;10554265;27;1937;-74
2023/08/22 11:28:35;;;;;;;;;;;;;;;32.87;89.31;95920.69;10556826;27;2453;-75
2023/08/22 11:33:37;;;;;;;;;;;;;;;33.13;84.90;95916.41;10557947;28;1888;-75
2023/08/22 11:38:42;;;;;;;;;;;;;;;33.01;86.61;95912.19;10556947;27;1876;-74
2023/08/22 11:43:47;;;;;;;;;;;;;;;33.05;88.42;95919.28;10562621;27;1967;-74
2023/08/22 11:48:52;;;;;;;;;;;;;;;33.12;89.30;95912.06;10560862;27;1872;-74
2023/08/22 11:53:57;;;;;;;;;;;;;;;33.37;86.24;95917.28;10546446;27;1832;-73
2023/08/22 11:59:07;;;;;;;;;;;;;;;33.11;86.79;95910.47;10551189;28;1906;-73
2023/08/22 12:04:11;;;;;;;;;;;;;;;33.05;84.64;95907.38;10551076;27;1959;-72
2023/08/22 12:09:14;;;;;;;;;;;;;;;32.80;88.11;95911.19;10532735;28;2119;-74
2023/08/22 12:14:20;;;;;;;;;;;;;;;32.64;88.76;95899.88;10549937;28;2071;-76
2023/08/22 12:19:26;;;;;;;;;;;;;;;33.55;78.06;95901.16;10568427;28;1259;-75
2023/08/22 12:24:29;;;;;;;;;;;;;;;33.77;80.97;95896.81;10556132;28;2443;-75
2023/08/22 12:29:34;;;;;;;;;;;;;;;32.51;91.17;95898.78;10552986;28;1410;-74
2023/08/22 12:34:39;;;;;;;;;;;;;;;32.75;92.07;95902.50;10567550;28;1074;-74
2023/08/22 12:39:43;;;;;;;;;;;;;;;33.65;84.09;95897.41;10552764;28;1398;-75
2023/08/22 12:44:48;;;;;;;;;;;;;;;33.99;76.41;95908.47;10561004;28;1909;-76
2023/08/22 12:50:08;;;;;;;;;;;;;;;34.00;77.51;95892.50;10558521;28;1351;-74
2023/08/22 12:55:11;;;;;;;;;;;;;;;33.49;82.74;95888.91;10553838;28;1375;-74
2023/08/22 13:00:18;;;;;;;;;;;;;;;33.33;83.65;95886.69;10549632;28;1580;-74
2023/08/22 13:05:21;;;;;;;;;;;;;;;33.95;81.59;95876.25;10563621;28;1975;-74
2023/08/22 13:10:38;;;;;;;;;;;;;;;33.94;81.80;95877.47;10570809;28;1581;-75
2023/08/22 13:15:57;;;;;;;;;;;;;;;33.57;84.58;95866.06;10568268;28;1552;-74
2023/08/22 13:21:10;;;;;;;;;;;;;;;33.65;85.73;95872.31;10570834;27;2477;-75
2023/08/22 13:26:14;;;;;;;;;;;;;;;33.40;87.02;95871.91;10576227;28;1151;-75
2023/08/22 13:31:24;;;;;;;;;;;;;;;33.46;87.70;95861.84;10567396;27;1422;-75
2023/08/22 13:36:31;;;;;;;;;;;;;;;33.24;88.72;95870.50;10566559;28;1390;-74
2023/08/22 13:41:39;;;;;;;;;;;;;;;33.21;89.30;95870.53;10574632;27;5140;-75
2023/08/22 13:46:42;;;;;;;;;;;;;;;33.26;88.31;95856.16;10532980;28;1326;-75
2023/08/22 13:51:46;;;;;;;;;;;;;;;33.07;90.67;95865.94;10566673;28;1328;-75
2023/08/22 13:56:52;;;;;;;;;;;;;;;32.68;90.71;95871.97;10541602;28;1590;-75
2023/08/22 14:01:57;;;;;;;;;;;;;;;32.79;91.79;95861.53;10539115;28;1981;-75
2023/08/22 14:07:00;;;;;;;;;;;;;;;32.97;88.56;95869.69;10561000;28;1225;-74
2023/08/22 14:12:03;;;;;;;;;;;;;;;32.85;91.01;95859.06;10559907;28;1433;-74
2023/08/22 14:17:08;;;;;;;;;;;;;;;32.63;91.62;95864.09;10562645;27;2348;-74
2023/08/22 14:22:11;;;;;;;;;;;;;;;32.55;93.12;95857.81;10562211;28;1982;-74
2023/08/22 14:27:16;;;;;;;;;;;;;;;32.71;93.08;95855.25;10555692;27;1627;-75
2023/08/22 14:32:22;;;;;;;;;;;;;;;32.88;90.47;95845.13;10562934;27;1840;-74
2023/08/22 14:37:25;;;;;;;;;;;;;;;32.92;90.71;95845.88;10545046;27;1901;-75
2023/08/22 14:42:32;;;;;;;;;;;;;;;33.10;87.85;95848.41;10552018;27;5014;-74
2023/08/22 14:47:37;;;;;;;;;;;;;;;33.03;88.80;95848.53;10550604;27;1899;-75
2023/08/22 14:52:44;;;;;;;;;;;;;;;32.87;89.42;95843.53;10546481;27;1996;-75
2023/08/22 14:57:50;;;;;;;;;;;;;;;33.09;88.63;95846.84;10555336;27;1874;-75
2023/08/22 15:02:54;;;;;;;;;;;;;;;33.18;89.48;95835.19;10549714;27;1913;-75
2023/08/22 15:08:00;;;;;;;;;;;;;;;33.06;89.90;95842.09;10548643;27;1883;-74
2023/08/22 15:13:04;;;;;;;;;;;;;;;32.96;88.50;95832.69;10546265;27;2288;-74
2023/08/22 15:18:12;;;;;;;;;;;;;;;33.14;84.24;95828.88;10558758;27;1943;-74
2023/08/22 15:23:18;;;;;;;;;;;;;;;32.87;86.17;95840.75;10542678;27;1927;-74
2023/08/22 15:28:23;;;;;;;;;;;;;;;32.84;85.94;95836.00;10534328;27;1877;-74
2023/08/22 15:33:34;;;;;;;;;;;;;;;32.55;86.49;95830.78;10545299;27;1843;-75
2023/08/22 15:38:41;;;;;;;;;;;;;;;32.46;85.35;95838.06;10552570;27;2153;-75
2023/08/22 15:43:49;;;;;;;;;;;;;;;32.43;85.92;95833.31;10547009;28;2046;-74
2023/08/22 15:48:59;;;;;;;;;;;;;;;32.17;86.81;95824.41;10556845;27;1827;-73
2023/08/22 15:54:04;;;;;;;;;;;;;;;32.08;87.31;95824.13;10518560;28;1932;-76
2023/08/22 15:59:10;;;;;;;;;;;;;;;31.96;86.83;95828.19;10519480;27;1851;-75
2023/08/22 16:04:21;;;;;;;;;;;;;;;31.78;88.94;95829.53;10558382;28;1969;-76
2023/08/22 16:09:30;;;;;;;;;;;;;;;31.78;90.44;95833.09;10547325;27;2403;-75
2023/08/22 16:20:01;;;;;;;;;;;;;;;31.60;93.24;95832.44;10490078;27;1958;-75
2023/08/22 16:25:03;;;;;;;;;;;;;;;31.53;nan;95821.38;10463358;28;1843;-75
2023/08/22 16:30:06;;;;;;;;;;;;;;;31.26;93.57;95816.44;10459166;28;1866;-74
2023/08/22 16:35:09;;;;;;;;;;;;;;;31.25;92.32;95816.84;10467790;28;1969;-75
2023/08/22 16:40:11;;;;;;;;;;;;;;;31.16;91.50;95829.13;10464519;28;5158;-75
2023/08/22 16:45:14;;;;;;;;;;;;;;;31.08;86.56;95821.28;10469038;28;1843;-76
2023/08/22 16:50:17;;;;;;;;;;;;;;;30.81;88.98;95823.81;10462284;28;1811;-74
2023/08/22 16:55:19;;;;;;;;;;;;;;;30.76;89.31;95818.66;10464395;28;1914;-75
2023/08/22 17:00:22;;;;;;;;;;;;;;;30.65;88.66;95822.25;10464978;28;1881;-75
2023/08/22 17:05:24;;;;;;;;;;;;;;;30.57;89.36;95817.91;10466221;28;1977;-75
2023/08/22 17:10:27;;;;;;;;;;;;;;;30.49;88.55;95830.25;10460138;28;1830;-76
2023/08/22 17:15:30;;;;;;;;;;;;;;;30.35;88.45;95831.09;10461039;28;1930;-75
2023/08/22 17:20:33;;;;;;;;;;;;;;;30.23;89.53;95830.72;10458687;28;2033;-76
2023/08/22 17:25:35;;;;;;;;;;;;;;;30.15;90.08;95836.25;10462025;28;1870;-76
2023/08/22 17:30:38;;;;;;;;;;;;;;;30.07;91.03;95834.66;10435649;28;2040;-76
2023/08/22 17:35:40;;;;;;;;;;;;;;;29.97;92.24;95829.16;10433045;28;2179;-77
2023/08/22 17:40:43;;;;;;;;;;;;;;;29.85;93.47;95827.59;10434701;28;5014;-76
2023/08/22 17:45:45;;;;;;;;;;;;;;;29.73;94.96;95830.75;10431833;28;1900;-76
2023/08/22 17:50:51;;;;;;;;;;;;;;;29.55;96.04;95837.06;10429259;28;1922;-76
2023/08/22 17:55:54;;;;;;;;;;;;;;;29.40;97.83;95829.94;10428020;28;1914;-76
2023/08/22 18:00:57;;;;;;;;;;;;;;;29.31;99.20;95832.28;10429780;28;2331;-75
2023/08/22 18:06:00;;;;;;;;;;;;;;;29.15;100.00;95826.34;10429012;28;1885;-73
2023/08/22 18:11:02;;;;;;;;;;;;;;;28.94;100.00;95836.16;10429149;28;1902;-74
2023/08/22 18:16:05;;;;;;;;;;;;;;;28.83;100.00;95835.31;10435780;28;1918;-75
2023/08/22 18:21:12;;;;;;;;;;;;;;;28.72;100.00;95838.03;10435606;28;2337;-74
2023/08/22 18:26:15;;;;;;;;;;;;;;;28.53;100.00;95850.19;10433918;28;1845;-74
2023/08/22 18:31:17;;;;;;;;;;;;;;;28.36;100.00;95850.09;10437436;28;1769;-75
2023/08/22 18:36:20;;;;;;;;;;;;;;;28.14;100.00;95855.50;10429474;28;1978;-75
2023/08/22 18:41:22;;;;;;;;;;;;;;;28.01;100.00;95855.00;10438112;28;5055;-76
2023/08/22 18:46:25;;;;;;;;;;;;;;;27.85;100.00;95859.22;10434867;28;2136;-76
2023/08/22 18:51:28;;;;;;;;;;;;;;;27.76;100.00;95862.31;10430279;28;2089;-77
2023/08/22 18:56:31;;;;;;;;;;;;;;;27.79;100.00;95867.06;10427558;28;2370;-78
2023/08/22 19:01:35;;;;;;;;;;;;;;;27.69;100.00;95862.28;10433304;28;2100;-77
2023/08/22 19:06:38;;;;;;;;;;;;;;;27.64;100.00;95871.66;10436085;28;2141;-77
2023/08/22 19:11:41;;;;;;;;;;;;;;;27.57;100.00;95881.84;10430028;28;1886;-78
2023/08/22 19:16:43;;;;;;;;;;;;;;;27.43;100.00;95880.56;10429392;28;2068;-77
2023/08/22 19:21:46;;;;;;;;;;;;;;;27.40;100.00;95883.25;10424589;28;2252;-77
2023/08/22 19:26:49;;;;;;;;;;;;;;;27.31;100.00;95886.34;10431308;28;2112;-77
2023/08/22 19:31:55;;;;;;;;;;;;;;;27.20;100.00;95893.72;10426800;28;1930;-77
2023/08/22 19:37:18;;;;;;;;;;;;;;;27.04;100.00;95893.09;10432819;28;2035;-77
2023/08/22 19:42:21;;;;;;;;;;;;;;;27.00;100.00;95892.28;10435410;28;5073;-77
2023/08/22 19:47:23;;;;;;;;;;;;;;;26.94;100.00;95900.88;10427151;28;1887;-78
2023/08/22 19:52:25;;;;;;;;;;;;;;;26.89;100.00;95897.66;10433088;28;2354;-77
2023/08/22 19:57:29;;;;;;;;;;;;;;;26.87;100.00;95900.81;10425448;28;1907;-77
2023/08/22 20:02:32;;;;;;;;;;;;;;;26.67;100.00;95889.13;10426557;28;1969;-78
2023/08/22 20:07:35;;;;;;;;;;;;;;;26.58;100.00;95898.84;10428305;28;1804;-77
2023/08/22 20:12:37;;;;;;;;;;;;;;;26.53;100.00;95907.44;10432031;28;2068;-78
2023/08/22 20:17:40;;;;;;;;;;;;;;;26.39;100.00;95911.56;10437105;28;1940;-76
2023/08/22 20:22:43;;;;;;;;;;;;;;;26.38;100.00;95912.72;10437086;28;1988;-77
2023/08/22 20:27:46;;;;;;;;;;;;;;;26.28;100.00;95907.88;10433235;28;1906;-77
2023/08/22 20:32:50;;;;;;;;;;;;;;;26.19;100.00;95918.34;10430573;28;1875;-77
2023/08/22 20:37:53;;;;;;;;;;;;;;;26.12;100.00;95910.78;10426593;28;1942;-76
2023/08/22 20:42:55;;;;;;;;;;;;;;;26.02;100.00;95911.44;10425163;28;5074;-76
2023/08/22 20:47:58;;;;;;;;;;;;;;;25.95;100.00;95927.03;10430840;28;2375;-76
2023/08/22 20:53:01;;;;;;;;;;;;;;;25.82;100.00;95929.97;10427388;28;1883;-79
2023/08/22 20:58:03;;;;;;;;;;;;;;;25.73;100.00;95926.69;10435081;28;2120;-74
2023/08/22 21:03:06;;;;;;;;;;;;;;;25.69;100.00;95925.00;10433611;28;1906;-77
2023/08/22 21:08:09;;;;;;;;;;;;;;;25.64;100.00;95934.38;10440213;28;2021;-77
2023/08/22 21:13:11;;;;;;;;;;;;;;;25.53;100.00;95930.63;10435302;28;1890;-75
2023/08/22 21:18:14;;;;;;;;;;;;;;;25.51;100.00;95932.94;10437144;28;2174;-78
2023/08/22 21:23:17;;;;;;;;;;;;;;;25.43;100.00;95931.22;10432834;28;1846;-82
2023/08/22 21:28:20;;;;;;;;;;;;;;;25.38;100.00;95926.81;10445552;28;1807;-82
2023/08/22 21:33:22;;;;;;;;;;;;;;;25.31;100.00;95932.97;10435706;28;1890;-79
2023/08/22 21:38:25;;;;;;;;;;;;;;;25.33;100.00;95930.66;10440530;28;1957;-77
2023/08/22 21:43:27;;;;;;;;;;;;;;;25.33;100.00;95940.88;10439438;28;5173;-74
2023/08/22 21:48:30;;;;;;;;;;;;;;;25.24;100.00;95938.34;10434894;28;2041;-75
2023/08/22 21:53:33;;;;;;;;;;;;;;;25.18;100.00;95937.03;10438994;28;1901;-75
2023/08/22 21:58:35;;;;;;;;;;;;;;;25.17;100.00;95937.41;10435062;28;1910;-76
2023/08/22 22:03:38;;;;;;;;;;;;;;;25.12;100.00;95935.75;10432500;28;1997;-76
2023/08/22 22:08:41;;;;;;;;;;;;;;;25.07;100.00;95938.81;10436644;28;1913;-75
2023/08/22 22:13:43;;;;;;;;;;;;;;;25.00;100.00;95950.44;10434722;28;1868;-75
2023/08/22 22:18:46;;;;;;;;;;;;;;;24.98;100.00;95940.94;10436536;28;1906;-76
2023/08/22 22:23:48;;;;;;;;;;;;;;;24.97;100.00;95945.66;10437566;28;1882;-76
2023/08/22 22:28:51;;;;;;;;;;;;;;;24.95;100.00;95931.47;10432216;28;1867;-75
2023/08/22 22:33:54;;;;;;;;;;;;;;;24.86;100.00;95933.63;10433899;28;1899;-74
2023/08/22 22:38:56;;;;;;;;;;;;;;;24.79;100.00;95934.28;10437337;28;1902;-75
2023/08/22 22:43:59;;;;;;;;;;;;;;;24.76;100.00;95928.72;10433407;28;5209;-76
2023/08/22 22:49:02;;;;;;;;;;;;;;;24.66;100.00;95934.78;10433641;28;1854;-75
2023/08/22 22:54:05;;;;;;;;;;;;;;;24.61;100.00;95932.31;10433971;28;1886;-75
2023/08/22 22:59:07;;;;;;;;;;;;;;;24.57;100.00;95932.25;10433286;28;1927;-75
2023/08/22 23:04:10;;;;;;;;;;;;;;;24.54;100.00;95928.25;10430731;28;1922;-74
2023/08/22 23:09:12;;;;;;;;;;;;;;;24.39;100.00;95914.56;10434727;28;1901;-76
2023/08/22 23:14:15;;;;;;;;;;;;;;;24.31;100.00;95912.81;10447047;28;1874;-75
2023/08/22 23:19:17;;;;;;;;;;;;;;;24.23;100.00;95912.63;10435197;28;1918;-76
2023/08/22 23:24:19;;;;;;;;;;;;;;;24.18;100.00;95915.66;10433980;28;1830;-74
2023/08/22 23:29:22;;;;;;;;;;;;;;;24.14;100.00;95909.28;10433612;28;2095;-76
2023/08/22 23:34:24;;;;;;;;;;;;;;;24.09;100.00;95912.31;10431733;28;1851;-76
2023/08/22 23:39:27;;;;;;;;;;;;;;;23.98;100.00;95912.06;10429232;28;1950;-76
2023/08/22 23:44:29;;;;;;;;;;;;;;;23.96;100.00;95908.06;10429996;28;5137;-76
2023/08/22 23:49:32;;;;;;;;;;;;;;;23.93;100.00;95912.34;10429661;28;2100;-75
2023/08/22 23:54:34;;;;;;;;;;;;;;;23.88;100.00;95906.31;10430548;28;1909;-74
2023/08/22 23:59:37;;;;;;;;;;;;;;;23.84;100.00;95897.97;10433021;28;1922;-77
